Terminal Aerodrome Forecast
Issued by NWS Central Illinois

Home | Current Version | Previous Version | Text Only | Print | Product List | Glossary On
Versions: 1 2 3 4 5 6 7 8 9 10 11 12 13 14 15 16 17 18 19 20 21 22 23 24 25
000
FTUS43 KILX 282300 RRA
TAFSPI
TAF
KSPI 282347Z 2900/2924 15012G20KT P6SM SCT120 OVC250 WS010/16040KT
     FM290300 17012G18KT P6SM OVC120 WS010/20045KT
     FM291100 28012KT P6SM OVC015
     FM291500 32020G28KT P6SM OVC015=

USA.gov is the U.S. government's official web portal to all federal, state and local government web resources and services.